sensor_id;sensor_type;location;lat;lon;timestamp;P1;durP1;ratioP1;P2;durP2;ratioP2
47025;SDS011;32783;51.756;-2.556;2023-07-02T00:02:21;4.90;;;4.15;;
47025;SDS011;32783;51.756;-2.556;2023-07-02T00:04:47;5.43;;;4.00;;
47025;SDS011;32783;51.756;-2.556;2023-07-02T00:07:12;5.07;;;4.53;;
47025;SDS011;32783;51.756;-2.556;2023-07-02T00:09:39;5.30;;;4.18;;
47025;SDS011;32783;51.756;-2.556;2023-07-02T00:12:05;5.18;;;4.22;;
47025;SDS011;32783;51.756;-2.556;2023-07-02T00:14:31;5.22;;;4.25;;
47025;SDS011;32783;51.756;-2.556;2023-07-02T00:16:56;6.63;;;5.10;;
47025;SDS011;32783;51.756;-2.556;2023-07-02T00:19:22;5.20;;;4.53;;
47025;SDS011;32783;51.756;-2.556;2023-07-02T00:21:47;5.20;;;4.65;;
47025;SDS011;32783;51.756;-2.556;2023-07-02T00:24:13;4.32;;;3.85;;
47025;SDS011;32783;51.756;-2.556;2023-07-02T00:26:41;4.75;;;4.22;;
47025;SDS011;32783;51.756;-2.556;2023-07-02T00:29:06;5.28;;;4.75;;
47025;SDS011;32783;51.756;-2.556;2023-07-02T00:31:34;5.68;;;4.63;;
47025;SDS011;32783;51.756;-2.556;2023-07-02T00:33:59;6.28;;;4.50;;
47025;SDS011;32783;51.756;-2.556;2023-07-02T00:36:26;5.00;;;4.50;;
47025;SDS011;32783;51.756;-2.556;2023-07-02T00:38:52;5.13;;;4.50;;
47025;SDS011;32783;51.756;-2.556;2023-07-02T00:41:17;5.15;;;4.20;;
47025;SDS011;32783;51.756;-2.556;2023-07-02T00:43:43;5.47;;;4.30;;
47025;SDS011;32783;51.756;-2.556;2023-07-02T00:46:15;5.47;;;4.03;;
47025;SDS011;32783;51.756;-2.556;2023-07-02T00:48:48;4.88;;;4.13;;
47025;SDS011;32783;51.756;-2.556;2023-07-02T00:51:15;5.35;;;4.35;;
47025;SDS011;32783;51.756;-2.556;2023-07-02T00:53:41;5.75;;;4.55;;
47025;SDS011;32783;51.756;-2.556;2023-07-02T00:56:06;5.05;;;4.05;;
47025;SDS011;32783;51.756;-2.556;2023-07-02T00:58:33;5.57;;;4.20;;
47025;SDS011;32783;51.756;-2.556;2023-07-02T01:00:59;5.07;;;4.47;;
47025;SDS011;32783;51.756;-2.556;2023-07-02T01:03:25;5.47;;;4.75;;
47025;SDS011;32783;51.756;-2.556;2023-07-02T01:05:50;4.88;;;4.13;;
47025;SDS011;32783;51.756;-2.556;2023-07-02T01:08:15;5.60;;;4.80;;
47025;SDS011;32783;51.756;-2.556;2023-07-02T01:10:41;4.97;;;4.00;;
47025;SDS011;32783;51.756;-2.556;2023-07-02T01:13:12;7.18;;;4.63;;
47025;SDS011;32783;51.756;-2.556;2023-07-02T01:15:40;5.00;;;4.45;;
47025;SDS011;32783;51.756;-2.556;2023-07-02T01:18:06;4.65;;;3.85;;
47025;SDS011;32783;51.756;-2.556;2023-07-02T01:20:32;4.72;;;3.90;;
47025;SDS011;32783;51.756;-2.556;2023-07-02T01:22:58;5.93;;;4.35;;
47025;SDS011;32783;51.756;-2.556;2023-07-02T01:25:28;5.43;;;3.97;;
47025;SDS011;32783;51.756;-2.556;2023-07-02T01:27:53;5.00;;;3.88;;
47025;SDS011;32783;51.756;-2.556;2023-07-02T01:30:20;5.72;;;4.32;;
47025;SDS011;32783;51.756;-2.556;2023-07-02T01:32:46;5.88;;;4.18;;
47025;SDS011;32783;51.756;-2.556;2023-07-02T01:35:11;5.72;;;4.43;;
47025;SDS011;32783;51.756;-2.556;2023-07-02T01:37:36;5.25;;;4.10;;
47025;SDS011;32783;51.756;-2.556;2023-07-02T01:40:05;4.97;;;4.47;;
47025;SDS011;32783;51.756;-2.556;2023-07-02T01:44:59;5.68;;;3.97;;
47025;SDS011;32783;51.756;-2.556;2023-07-02T01:47:24;5.18;;;4.50;;
47025;SDS011;32783;51.756;-2.556;2023-07-02T01:49:50;6.18;;;4.35;;
47025;SDS011;32783;51.756;-2.556;2023-07-02T01:52:16;4.82;;;4.32;;
47025;SDS011;32783;51.756;-2.556;2023-07-02T01:54:41;5.07;;;4.20;;
47025;SDS011;32783;51.756;-2.556;2023-07-02T01:57:07;4.50;;;3.78;;
47025;SDS011;32783;51.756;-2.556;2023-07-02T01:59:32;4.60;;;3.70;;
47025;SDS011;32783;51.756;-2.556;2023-07-02T02:01:58;4.38;;;3.88;;
47025;SDS011;32783;51.756;-2.556;2023-07-02T02:04:23;5.18;;;4.22;;
47025;SDS011;32783;51.756;-2.556;2023-07-02T02:06:48;4.70;;;3.88;;
47025;SDS011;32783;51.756;-2.556;2023-07-02T02:09:14;4.50;;;3.92;;
47025;SDS011;32783;51.756;-2.556;2023-07-02T02:11:43;5.68;;;4.20;;
47025;SDS011;32783;51.756;-2.556;2023-07-02T02:14:10;5.78;;;4.18;;
47025;SDS011;32783;51.756;-2.556;2023-07-02T02:16:35;5.38;;;3.72;;
47025;SDS011;32783;51.756;-2.556;2023-07-02T02:19:00;5.65;;;4.00;;
47025;SDS011;32783;51.756;-2.556;2023-07-02T02:21:26;4.53;;;4.10;;
47025;SDS011;32783;51.756;-2.556;2023-07-02T02:23:51;5.07;;;4.10;;
47025;SDS011;32783;51.756;-2.556;2023-07-02T02:26:17;4.30;;;3.67;;
47025;SDS011;32783;51.756;-2.556;2023-07-02T02:28:43;4.18;;;3.78;;
47025;SDS011;32783;51.756;-2.556;2023-07-02T02:31:08;4.18;;;3.65;;
47025;SDS011;32783;51.756;-2.556;2023-07-02T02:33:34;4.90;;;4.40;;
47025;SDS011;32783;51.756;-2.556;2023-07-02T02:36:00;4.50;;;3.47;;
47025;SDS011;32783;51.756;-2.556;2023-07-02T02:38:26;4.38;;;3.97;;
47025;SDS011;32783;51.756;-2.556;2023-07-02T02:40:51;4.50;;;3.70;;
47025;SDS011;32783;51.756;-2.556;2023-07-02T02:43:17;4.45;;;3.70;;
47025;SDS011;32783;51.756;-2.556;2023-07-02T02:45:42;5.13;;;3.78;;
47025;SDS011;32783;51.756;-2.556;2023-07-02T02:48:08;4.57;;;3.40;;
47025;SDS011;32783;51.756;-2.556;2023-07-02T02:50:33;4.22;;;3.78;;
47025;SDS011;32783;51.756;-2.556;2023-07-02T02:52:58;5.15;;;4.13;;
47025;SDS011;32783;51.756;-2.556;2023-07-02T02:55:24;4.45;;;4.05;;
47025;SDS011;32783;51.756;-2.556;2023-07-02T02:57:49;4.88;;;3.67;;
47025;SDS011;32783;51.756;-2.556;2023-07-02T03:00:14;4.72;;;3.85;;
47025;SDS011;32783;51.756;-2.556;2023-07-02T03:02:41;4.28;;;3.88;;
47025;SDS011;32783;51.756;-2.556;2023-07-02T03:05:06;4.45;;;3.75;;
47025;SDS011;32783;51.756;-2.556;2023-07-02T03:07:32;4.78;;;3.88;;
47025;SDS011;32783;51.756;-2.556;2023-07-02T03:09:57;4.50;;;3.63;;
47025;SDS011;32783;51.756;-2.556;2023-07-02T03:12:24;4.00;;;3.50;;
47025;SDS011;32783;51.756;-2.556;2023-07-02T03:14:50;4.15;;;3.75;;
47025;SDS011;32783;51.756;-2.556;2023-07-02T03:17:19;4.32;;;3.92;;
47025;SDS011;32783;51.756;-2.556;2023-07-02T03:19:47;5.53;;;4.55;;
47025;SDS011;32783;51.756;-2.556;2023-07-02T03:22:13;4.15;;;3.40;;
47025;SDS011;32783;51.756;-2.556;2023-07-02T03:24:38;5.00;;;4.15;;
47025;SDS011;32783;51.756;-2.556;2023-07-02T03:27:03;3.67;;;3.38;;
47025;SDS011;32783;51.756;-2.556;2023-07-02T03:29:29;5.55;;;4.03;;
47025;SDS011;32783;51.756;-2.556;2023-07-02T03:31:54;4.38;;;3.95;;
47025;SDS011;32783;51.756;-2.556;2023-07-02T03:34:20;4.93;;;3.95;;
47025;SDS011;32783;51.756;-2.556;2023-07-02T03:36:47;3.90;;;3.53;;
47025;SDS011;32783;51.756;-2.556;2023-07-02T03:39:12;4.20;;;3.80;;
47025;SDS011;32783;51.756;-2.556;2023-07-02T03:41:38;5.30;;;4.10;;
47025;SDS011;32783;51.756;-2.556;2023-07-02T03:44:03;3.97;;;3.53;;
47025;SDS011;32783;51.756;-2.556;2023-07-02T03:46:29;5.22;;;4.18;;
47025;SDS011;32783;51.756;-2.556;2023-07-02T03:48:56;3.75;;;3.35;;
47025;SDS011;32783;51.756;-2.556;2023-07-02T03:51:21;3.83;;;3.42;;
47025;SDS011;32783;51.756;-2.556;2023-07-02T03:53:46;3.40;;;3.05;;
47025;SDS011;32783;51.756;-2.556;2023-07-02T03:56:12;4.47;;;3.30;;
47025;SDS011;32783;51.756;-2.556;2023-07-02T03:58:37;3.75;;;3.00;;
47025;SDS011;32783;51.756;-2.556;2023-07-02T04:01:04;4.05;;;3.63;;
47025;SDS011;32783;51.756;-2.556;2023-07-02T04:03:30;5.15;;;3.63;;
47025;SDS011;32783;51.756;-2.556;2023-07-02T04:05:55;4.80;;;3.63;;
47025;SDS011;32783;51.756;-2.556;2023-07-02T04:08:21;3.30;;;2.95;;
47025;SDS011;32783;51.756;-2.556;2023-07-02T04:10:47;5.20;;;3.70;;
47025;SDS011;32783;51.756;-2.556;2023-07-02T04:13:12;4.55;;;3.50;;
47025;SDS011;32783;51.756;-2.556;2023-07-02T04:15:37;3.67;;;3.25;;
47025;SDS011;32783;51.756;-2.556;2023-07-02T04:18:03;4.07;;;3.67;;
47025;SDS011;32783;51.756;-2.556;2023-07-02T04:20:28;3.78;;;2.92;;
47025;SDS011;32783;51.756;-2.556;2023-07-02T04:22:53;4.38;;;3.42;;
47025;SDS011;32783;51.756;-2.556;2023-07-02T04:25:19;3.72;;;3.33;;
47025;SDS011;32783;51.756;-2.556;2023-07-02T04:27:44;4.97;;;3.60;;
47025;SDS011;32783;51.756;-2.556;2023-07-02T04:30:10;3.72;;;3.42;;
47025;SDS011;32783;51.756;-2.556;2023-07-02T04:32:36;3.08;;;2.78;;
47025;SDS011;32783;51.756;-2.556;2023-07-02T04:35:04;3.95;;;3.53;;
47025;SDS011;32783;51.756;-2.556;2023-07-02T04:37:30;3.70;;;3.03;;
47025;SDS011;32783;51.756;-2.556;2023-07-02T04:39:56;3.67;;;3.35;;
47025;SDS011;32783;51.756;-2.556;2023-07-02T04:42:21;3.58;;;3.22;;
47025;SDS011;32783;51.756;-2.556;2023-07-02T04:44:46;4.97;;;3.10;;
47025;SDS011;32783;51.756;-2.556;2023-07-02T04:47:12;3.47;;;3.15;;
47025;SDS011;32783;51.756;-2.556;2023-07-02T04:49:37;4.05;;;3.15;;
47025;SDS011;32783;51.756;-2.556;2023-07-02T04:52:06;4.32;;;3.28;;
47025;SDS011;32783;51.756;-2.556;2023-07-02T04:54:31;4.47;;;3.22;;
47025;SDS011;32783;51.756;-2.556;2023-07-02T04:56:56;3.63;;;3.00;;
47025;SDS011;32783;51.756;-2.556;2023-07-02T04:59:23;3.47;;;3.17;;
47025;SDS011;32783;51.756;-2.556;2023-07-02T05:01:49;4.95;;;3.42;;
47025;SDS011;32783;51.756;-2.556;2023-07-02T05:04:14;3.88;;;3.10;;
47025;SDS011;32783;51.756;-2.556;2023-07-02T05:06:40;4.03;;;3.28;;
47025;SDS011;32783;51.756;-2.556;2023-07-02T05:09:05;3.55;;;3.10;;
47025;SDS011;32783;51.756;-2.556;2023-07-02T05:11:30;4.15;;;3.35;;
47025;SDS011;32783;51.756;-2.556;2023-07-02T05:13:56;3.22;;;2.80;;
47025;SDS011;32783;51.756;-2.556;2023-07-02T05:16:21;3.75;;;3.25;;
47025;SDS011;32783;51.756;-2.556;2023-07-02T05:18:46;4.18;;;3.53;;
47025;SDS011;32783;51.756;-2.556;2023-07-02T05:21:12;3.22;;;2.92;;
47025;SDS011;32783;51.756;-2.556;2023-07-02T05:23:37;4.03;;;3.30;;
47025;SDS011;32783;51.756;-2.556;2023-07-02T05:26:02;3.42;;;2.95;;
47025;SDS011;32783;51.756;-2.556;2023-07-02T05:28:28;3.80;;;3.15;;
47025;SDS011;32783;51.756;-2.556;2023-07-02T05:30:53;3.42;;;2.90;;
47025;SDS011;32783;51.756;-2.556;2023-07-02T05:33:19;3.95;;;3.25;;
47025;SDS011;32783;51.756;-2.556;2023-07-02T05:35:45;3.65;;;3.10;;
47025;SDS011;32783;51.756;-2.556;2023-07-02T05:38:11;3.13;;;2.70;;
47025;SDS011;32783;51.756;-2.556;2023-07-02T05:40:36;3.95;;;3.35;;
47025;SDS011;32783;51.756;-2.556;2023-07-02T05:43:02;3.25;;;2.78;;
47025;SDS011;32783;51.756;-2.556;2023-07-02T05:45:27;3.20;;;2.78;;
47025;SDS011;32783;51.756;-2.556;2023-07-02T05:47:53;3.58;;;2.53;;
47025;SDS011;32783;51.756;-2.556;2023-07-02T05:50:19;3.25;;;2.92;;
47025;SDS011;32783;51.756;-2.556;2023-07-02T05:52:44;3.40;;;2.50;;
47025;SDS011;32783;51.756;-2.556;2023-07-02T05:55:10;3.72;;;3.28;;
47025;SDS011;32783;51.756;-2.556;2023-07-02T05:57:36;3.85;;;2.83;;
47025;SDS011;32783;51.756;-2.556;2023-07-02T06:00:02;3.60;;;2.50;;
47025;SDS011;32783;51.756;-2.556;2023-07-02T06:02:29;3.35;;;2.85;;
47025;SDS011;32783;51.756;-2.556;2023-07-02T06:04:54;3.67;;;2.95;;
47025;SDS011;32783;51.756;-2.556;2023-07-02T06:07:19;3.75;;;3.05;;
47025;SDS011;32783;51.756;-2.556;2023-07-02T06:09:45;4.05;;;2.88;;
47025;SDS011;32783;51.756;-2.556;2023-07-02T06:12:10;3.05;;;2.58;;
47025;SDS011;32783;51.756;-2.556;2023-07-02T06:14:36;4.38;;;2.97;;
47025;SDS011;32783;51.756;-2.556;2023-07-02T06:17:01;3.33;;;2.88;;
47025;SDS011;32783;51.756;-2.556;2023-07-02T06:19:30;2.95;;;2.38;;
47025;SDS011;32783;51.756;-2.556;2023-07-02T06:21:56;3.83;;;2.92;;
47025;SDS011;32783;51.756;-2.556;2023-07-02T06:24:21;6.07;;;3.05;;
47025;SDS011;32783;51.756;-2.556;2023-07-02T06:26:46;3.50;;;2.45;;
47025;SDS011;32783;51.756;-2.556;2023-07-02T06:29:11;3.83;;;3.03;;
47025;SDS011;32783;51.756;-2.556;2023-07-02T06:31:37;2.90;;;2.58;;
47025;SDS011;32783;51.756;-2.556;2023-07-02T06:34:02;3.95;;;2.88;;
47025;SDS011;32783;51.756;-2.556;2023-07-02T06:36:27;3.67;;;2.80;;
47025;SDS011;32783;51.756;-2.556;2023-07-02T06:38:53;4.85;;;2.33;;
47025;SDS011;32783;51.756;-2.556;2023-07-02T06:41:18;2.83;;;2.55;;
47025;SDS011;32783;51.756;-2.556;2023-07-02T06:43:44;3.58;;;2.30;;
47025;SDS011;32783;51.756;-2.556;2023-07-02T06:46:09;3.28;;;2.28;;
47025;SDS011;32783;51.756;-2.556;2023-07-02T06:48:35;3.13;;;2.35;;
47025;SDS011;32783;51.756;-2.556;2023-07-02T06:51:01;3.92;;;2.65;;
47025;SDS011;32783;51.756;-2.556;2023-07-02T06:53:26;5.80;;;3.10;;
47025;SDS011;32783;51.756;-2.556;2023-07-02T06:55:51;2.95;;;2.35;;
47025;SDS011;32783;51.756;-2.556;2023-07-02T06:58:17;3.08;;;2.53;;
47025;SDS011;32783;51.756;-2.556;2023-07-02T07:00:42;2.83;;;2.50;;
47025;SDS011;32783;51.756;-2.556;2023-07-02T07:03:08;4.03;;;2.40;;
47025;SDS011;32783;51.756;-2.556;2023-07-02T07:05:33;4.13;;;2.85;;
47025;SDS011;32783;51.756;-2.556;2023-07-02T07:07:59;5.03;;;2.80;;
47025;SDS011;32783;51.756;-2.556;2023-07-02T07:10:25;5.30;;;2.85;;
47025;SDS011;32783;51.756;-2.556;2023-07-02T07:12:50;3.00;;;2.30;;
47025;SDS011;32783;51.756;-2.556;2023-07-02T07:15:16;3.33;;;2.58;;
47025;SDS011;32783;51.756;-2.556;2023-07-02T07:17:41;3.88;;;2.60;;
47025;SDS011;32783;51.756;-2.556;2023-07-02T07:20:07;5.53;;;2.83;;
47025;SDS011;32783;51.756;-2.556;2023-07-02T07:22:33;3.05;;;2.33;;
47025;SDS011;32783;51.756;-2.556;2023-07-02T07:24:58;5.47;;;2.25;;
47025;SDS011;32783;51.756;-2.556;2023-07-02T07:27:24;6.75;;;2.67;;
47025;SDS011;32783;51.756;-2.556;2023-07-02T07:29:49;4.57;;;3.40;;
47025;SDS011;32783;51.756;-2.556;2023-07-02T07:32:14;4.97;;;3.35;;
47025;SDS011;32783;51.756;-2.556;2023-07-02T07:34:40;4.28;;;2.88;;
47025;SDS011;32783;51.756;-2.556;2023-07-02T07:37:05;6.15;;;2.95;;
47025;SDS011;32783;51.756;-2.556;2023-07-02T07:39:30;6.28;;;2.78;;
47025;SDS011;32783;51.756;-2.556;2023-07-02T07:41:56;4.72;;;3.13;;
47025;SDS011;32783;51.756;-2.556;2023-07-02T07:44:21;8.77;;;3.10;;
47025;SDS011;32783;51.756;-2.556;2023-07-02T07:46:46;5.60;;;2.85;;
47025;SDS011;32783;51.756;-2.556;2023-07-02T07:49:12;4.43;;;2.88;;
47025;SDS011;32783;51.756;-2.556;2023-07-02T07:51:38;6.10;;;2.83;;
47025;SDS011;32783;51.756;-2.556;2023-07-02T07:54:03;3.20;;;2.42;;
47025;SDS011;32783;51.756;-2.556;2023-07-02T07:56:29;4.60;;;3.00;;
47025;SDS011;32783;51.756;-2.556;2023-07-02T07:58:54;5.40;;;2.75;;
47025;SDS011;32783;51.756;-2.556;2023-07-02T08:01:19;4.35;;;2.40;;
47025;SDS011;32783;51.756;-2.556;2023-07-02T08:03:45;6.32;;;2.75;;
47025;SDS011;32783;51.756;-2.556;2023-07-02T08:06:11;3.83;;;2.80;;
47025;SDS011;32783;51.756;-2.556;2023-07-02T08:08:36;3.33;;;2.60;;
47025;SDS011;32783;51.756;-2.556;2023-07-02T08:11:02;5.68;;;2.40;;
47025;SDS011;32783;51.756;-2.556;2023-07-02T08:13:27;3.72;;;2.58;;
47025;SDS011;32783;51.756;-2.556;2023-07-02T08:15:53;3.05;;;2.20;;
47025;SDS011;32783;51.756;-2.556;2023-07-02T08:18:18;7.13;;;3.20;;
47025;SDS011;32783;51.756;-2.556;2023-07-02T08:20:43;5.88;;;3.00;;
47025;SDS011;32783;51.756;-2.556;2023-07-02T08:23:09;7.25;;;3.03;;
47025;SDS011;32783;51.756;-2.556;2023-07-02T08:25:34;4.93;;;2.53;;
47025;SDS011;32783;51.756;-2.556;2023-07-02T08:27:59;4.47;;;2.65;;
47025;SDS011;32783;51.756;-2.556;2023-07-02T08:30:25;8.15;;;3.05;;
47025;SDS011;32783;51.756;-2.556;2023-07-02T08:32:50;5.22;;;2.40;;
47025;SDS011;32783;51.756;-2.556;2023-07-02T08:35:15;5.03;;;2.47;;
47025;SDS011;32783;51.756;-2.556;2023-07-02T08:37:42;3.47;;;2.40;;
47025;SDS011;32783;51.756;-2.556;2023-07-02T08:40:15;5.35;;;2.70;;
47025;SDS011;32783;51.756;-2.556;2023-07-02T08:42:42;4.93;;;2.90;;
47025;SDS011;32783;51.756;-2.556;2023-07-02T08:45:07;5.03;;;2.90;;
47025;SDS011;32783;51.756;-2.556;2023-07-02T08:47:33;5.57;;;2.72;;
47025;SDS011;32783;51.756;-2.556;2023-07-02T08:49:58;4.05;;;3.00;;
47025;SDS011;32783;51.756;-2.556;2023-07-02T08:52:24;4.15;;;2.70;;
47025;SDS011;32783;51.756;-2.556;2023-07-02T08:54:49;4.05;;;2.47;;
47025;SDS011;32783;51.756;-2.556;2023-07-02T08:57:15;5.47;;;2.60;;
47025;SDS011;32783;51.756;-2.556;2023-07-02T08:59:40;6.63;;;2.80;;
47025;SDS011;32783;51.756;-2.556;2023-07-02T09:02:05;5.93;;;2.60;;
47025;SDS011;32783;51.756;-2.556;2023-07-02T09:04:31;6.53;;;2.53;;
47025;SDS011;32783;51.756;-2.556;2023-07-02T09:07:06;4.18;;;2.08;;
47025;SDS011;32783;51.756;-2.556;2023-07-02T09:09:33;3.42;;;2.17;;
47025;SDS011;32783;51.756;-2.556;2023-07-02T09:11:58;3.97;;;2.00;;
47025;SDS011;32783;51.756;-2.556;2023-07-02T09:14:27;6.65;;;2.88;;
47025;SDS011;32783;51.756;-2.556;2023-07-02T09:17:03;6.47;;;2.70;;
47025;SDS011;32783;51.756;-2.556;2023-07-02T09:19:30;4.10;;;2.30;;
47025;SDS011;32783;51.756;-2.556;2023-07-02T09:21:57;4.65;;;2.28;;
47025;SDS011;32783;51.756;-2.556;2023-07-02T09:24:27;4.18;;;2.67;;
47025;SDS011;32783;51.756;-2.556;2023-07-02T09:26:57;2.78;;;1.73;;
47025;SDS011;32783;51.756;-2.556;2023-07-02T09:29:25;6.35;;;2.13;;
47025;SDS011;32783;51.756;-2.556;2023-07-02T09:31:54;4.28;;;1.90;;
47025;SDS011;32783;51.756;-2.556;2023-07-02T09:34:25;4.38;;;2.08;;
47025;SDS011;32783;51.756;-2.556;2023-07-02T09:36:51;4.45;;;1.75;;
47025;SDS011;32783;51.756;-2.556;2023-07-02T09:39:25;3.88;;;1.80;;
47025;SDS011;32783;51.756;-2.556;2023-07-02T09:41:52;4.13;;;1.73;;
47025;SDS011;32783;51.756;-2.556;2023-07-02T09:44:25;4.40;;;1.85;;
47025;SDS011;32783;51.756;-2.556;2023-07-02T09:46:57;4.60;;;2.20;;
47025;SDS011;32783;51.756;-2.556;2023-07-02T09:49:26;4.15;;;2.38;;
47025;SDS011;32783;51.756;-2.556;2023-07-02T09:51:52;4.68;;;1.80;;
47025;SDS011;32783;51.756;-2.556;2023-07-02T09:54:18;2.83;;;1.73;;
47025;SDS011;32783;51.756;-2.556;2023-07-02T09:56:45;3.85;;;1.40;;
47025;SDS011;32783;51.756;-2.556;2023-07-02T09:59:11;4.07;;;1.88;;
47025;SDS011;32783;51.756;-2.556;2023-07-02T10:01:36;4.13;;;1.70;;
47025;SDS011;32783;51.756;-2.556;2023-07-02T10:04:12;3.47;;;2.00;;
47025;SDS011;32783;51.756;-2.556;2023-07-02T10:06:54;2.85;;;1.85;;
47025;SDS011;32783;51.756;-2.556;2023-07-02T10:09:25;4.15;;;1.95;;
47025;SDS011;32783;51.756;-2.556;2023-07-02T10:11:59;4.35;;;1.80;;
47025;SDS011;32783;51.756;-2.556;2023-07-02T10:14:25;6.22;;;2.17;;
47025;SDS011;32783;51.756;-2.556;2023-07-02T10:19:16;3.10;;;1.63;;
47025;SDS011;32783;51.756;-2.556;2023-07-02T10:21:41;2.95;;;1.67;;
47025;SDS011;32783;51.756;-2.556;2023-07-02T10:24:10;5.10;;;2.13;;
47025;SDS011;32783;51.756;-2.556;2023-07-02T10:26:36;3.03;;;1.90;;
47025;SDS011;32783;51.756;-2.556;2023-07-02T10:29:01;4.38;;;2.28;;
47025;SDS011;32783;51.756;-2.556;2023-07-02T10:31:27;3.03;;;1.50;;
47025;SDS011;32783;51.756;-2.556;2023-07-02T10:33:53;3.92;;;1.73;;
47025;SDS011;32783;51.756;-2.556;2023-07-02T10:36:22;4.20;;;1.80;;
47025;SDS011;32783;51.756;-2.556;2023-07-02T10:38:49;2.78;;;1.55;;
47025;SDS011;32783;51.756;-2.556;2023-07-02T10:41:28;3.55;;;1.77;;
47025;SDS011;32783;51.756;-2.556;2023-07-02T10:43:54;3.00;;;1.75;;
47025;SDS011;32783;51.756;-2.556;2023-07-02T10:46:20;4.72;;;1.85;;
47025;SDS011;32783;51.756;-2.556;2023-07-02T10:48:53;5.30;;;1.42;;
47025;SDS011;32783;51.756;-2.556;2023-07-02T10:51:19;2.40;;;1.30;;
47025;SDS011;32783;51.756;-2.556;2023-07-02T10:53:44;3.35;;;1.45;;
47025;SDS011;32783;51.756;-2.556;2023-07-02T10:56:15;3.85;;;1.88;;
47025;SDS011;32783;51.756;-2.556;2023-07-02T10:58:44;3.75;;;1.95;;
47025;SDS011;32783;51.756;-2.556;2023-07-02T11:01:09;2.47;;;1.55;;
47025;SDS011;32783;51.756;-2.556;2023-07-02T11:03:34;4.78;;;2.13;;
47025;SDS011;32783;51.756;-2.556;2023-07-02T11:06:00;5.05;;;1.55;;
47025;SDS011;32783;51.756;-2.556;2023-07-02T11:08:34;3.28;;;1.70;;
47025;SDS011;32783;51.756;-2.556;2023-07-02T11:11:06;3.58;;;1.63;;
47025;SDS011;32783;51.756;-2.556;2023-07-02T11:13:32;2.83;;;1.73;;
47025;SDS011;32783;51.756;-2.556;2023-07-02T11:15:57;3.88;;;1.80;;
47025;SDS011;32783;51.756;-2.556;2023-07-02T11:18:23;3.83;;;1.70;;
47025;SDS011;32783;51.756;-2.556;2023-07-02T11:20:48;3.38;;;1.52;;
47025;SDS011;32783;51.756;-2.556;2023-07-02T11:23:20;4.13;;;1.40;;
47025;SDS011;32783;51.756;-2.556;2023-07-02T11:25:57;2.47;;;1.42;;
47025;SDS011;32783;51.756;-2.556;2023-07-02T11:28:23;2.40;;;1.35;;
47025;SDS011;32783;51.756;-2.556;2023-07-02T11:30:48;2.70;;;1.45;;
47025;SDS011;32783;51.756;-2.556;2023-07-02T11:33:14;2.67;;;1.38;;
47025;SDS011;32783;51.756;-2.556;2023-07-02T11:35:39;2.35;;;1.25;;
47025;SDS011;32783;51.756;-2.556;2023-07-02T11:38:04;3.55;;;1.40;;
47025;SDS011;32783;51.756;-2.556;2023-07-02T11:40:30;4.60;;;1.88;;
47025;SDS011;32783;51.756;-2.556;2023-07-02T11:42:55;3.08;;;2.00;;
47025;SDS011;32783;51.756;-2.556;2023-07-02T11:45:20;3.90;;;1.67;;
47025;SDS011;32783;51.756;-2.556;2023-07-02T11:47:46;3.17;;;1.50;;
47025;SDS011;32783;51.756;-2.556;2023-07-02T11:50:11;2.28;;;1.30;;
47025;SDS011;32783;51.756;-2.556;2023-07-02T11:52:37;3.05;;;1.50;;
47025;SDS011;32783;51.756;-2.556;2023-07-02T11:55:02;2.35;;;1.38;;
47025;SDS011;32783;51.756;-2.556;2023-07-02T11:57:27;2.97;;;1.52;;
47025;SDS011;32783;51.756;-2.556;2023-07-02T11:59:53;3.88;;;1.67;;
47025;SDS011;32783;51.756;-2.556;2023-07-02T12:02:18;5.35;;;1.85;;
47025;SDS011;32783;51.756;-2.556;2023-07-02T12:04:44;2.75;;;1.33;;
47025;SDS011;32783;51.756;-2.556;2023-07-02T12:07:09;3.75;;;1.95;;
47025;SDS011;32783;51.756;-2.556;2023-07-02T12:09:35;4.32;;;1.92;;
47025;SDS011;32783;51.756;-2.556;2023-07-02T12:12:01;5.55;;;2.30;;
47025;SDS011;32783;51.756;-2.556;2023-07-02T12:14:26;3.00;;;1.20;;
47025;SDS011;32783;51.756;-2.556;2023-07-02T12:16:52;2.17;;;1.25;;
47025;SDS011;32783;51.756;-2.556;2023-07-02T12:19:17;3.72;;;1.10;;
47025;SDS011;32783;51.756;-2.556;2023-07-02T12:21:42;4.30;;;1.48;;
47025;SDS011;32783;51.756;-2.556;2023-07-02T12:24:08;2.55;;;1.40;;
47025;SDS011;32783;51.756;-2.556;2023-07-02T12:26:35;4.90;;;1.27;;
47025;SDS011;32783;51.756;-2.556;2023-07-02T12:29:01;2.53;;;1.27;;
47025;SDS011;32783;51.756;-2.556;2023-07-02T12:31:26;3.33;;;1.77;;
47025;SDS011;32783;51.756;-2.556;2023-07-02T12:33:51;1.77;;;1.25;;
47025;SDS011;32783;51.756;-2.556;2023-07-02T12:36:17;3.42;;;1.70;;
47025;SDS011;32783;51.756;-2.556;2023-07-02T12:38:42;4.65;;;1.95;;
47025;SDS011;32783;51.756;-2.556;2023-07-02T12:41:07;3.20;;;1.50;;
47025;SDS011;32783;51.756;-2.556;2023-07-02T12:43:33;2.20;;;1.20;;
47025;SDS011;32783;51.756;-2.556;2023-07-02T12:45:58;6.10;;;1.50;;
47025;SDS011;32783;51.756;-2.556;2023-07-02T12:48:23;4.72;;;1.17;;
47025;SDS011;32783;51.756;-2.556;2023-07-02T12:50:55;4.38;;;1.42;;
47025;SDS011;32783;51.756;-2.556;2023-07-02T12:53:22;3.45;;;1.70;;
47025;SDS011;32783;51.756;-2.556;2023-07-02T12:55:47;3.22;;;1.70;;
47025;SDS011;32783;51.756;-2.556;2023-07-02T12:58:13;4.43;;;1.60;;
47025;SDS011;32783;51.756;-2.556;2023-07-02T13:00:38;3.05;;;1.35;;
47025;SDS011;32783;51.756;-2.556;2023-07-02T13:03:03;3.90;;;1.58;;
47025;SDS011;32783;51.756;-2.556;2023-07-02T13:05:29;4.03;;;1.20;;
47025;SDS011;32783;51.756;-2.556;2023-07-02T13:07:54;2.83;;;1.33;;
47025;SDS011;32783;51.756;-2.556;2023-07-02T13:10:19;4.25;;;1.65;;
47025;SDS011;32783;51.756;-2.556;2023-07-02T13:12:45;3.30;;;1.40;;
47025;SDS011;32783;51.756;-2.556;2023-07-02T13:15:10;2.95;;;1.40;;
47025;SDS011;32783;51.756;-2.556;2023-07-02T13:17:37;4.07;;;1.67;;
47025;SDS011;32783;51.756;-2.556;2023-07-02T13:20:02;3.38;;;1.40;;
47025;SDS011;32783;51.756;-2.556;2023-07-02T13:22:29;3.33;;;1.40;;
47025;SDS011;32783;51.756;-2.556;2023-07-02T13:24:54;2.50;;;1.20;;
47025;SDS011;32783;51.756;-2.556;2023-07-02T13:27:19;1.75;;;1.30;;
47025;SDS011;32783;51.756;-2.556;2023-07-02T13:29:45;2.70;;;1.35;;
47025;SDS011;32783;51.756;-2.556;2023-07-02T13:32:10;3.88;;;1.52;;
47025;SDS011;32783;51.756;-2.556;2023-07-02T13:34:36;4.07;;;1.38;;
47025;SDS011;32783;51.756;-2.556;2023-07-02T13:37:02;2.45;;;1.30;;
47025;SDS011;32783;51.756;-2.556;2023-07-02T13:39:28;3.45;;;1.52;;
47025;SDS011;32783;51.756;-2.556;2023-07-02T13:41:53;3.50;;;1.58;;
47025;SDS011;32783;51.756;-2.556;2023-07-02T13:44:19;4.65;;;1.55;;
47025;SDS011;32783;51.756;-2.556;2023-07-02T13:46:44;2.90;;;1.25;;
47025;SDS011;32783;51.756;-2.556;2023-07-02T13:49:10;7.15;;;1.90;;
47025;SDS011;32783;51.756;-2.556;2023-07-02T13:51:35;6.78;;;2.00;;
47025;SDS011;32783;51.756;-2.556;2023-07-02T13:54:01;6.90;;;1.65;;
47025;SDS011;32783;51.756;-2.556;2023-07-02T13:56:26;6.82;;;1.73;;
47025;SDS011;32783;51.756;-2.556;2023-07-02T14:01:20;6.18;;;2.22;;
47025;SDS011;32783;51.756;-2.556;2023-07-02T14:03:45;5.05;;;1.67;;
47025;SDS011;32783;51.756;-2.556;2023-07-02T14:06:10;3.53;;;1.20;;
47025;SDS011;32783;51.756;-2.556;2023-07-02T14:08:36;5.22;;;1.67;;
47025;SDS011;32783;51.756;-2.556;2023-07-02T14:11:01;4.22;;;1.67;;
47025;SDS011;32783;51.756;-2.556;2023-07-02T14:13:27;3.58;;;1.27;;
47025;SDS011;32783;51.756;-2.556;2023-07-02T14:15:52;4.10;;;1.35;;
47025;SDS011;32783;51.756;-2.556;2023-07-02T14:18:17;4.68;;;1.50;;
47025;SDS011;32783;51.756;-2.556;2023-07-02T14:20:43;6.32;;;1.35;;
47025;SDS011;32783;51.756;-2.556;2023-07-02T14:23:08;5.45;;;1.95;;
47025;SDS011;32783;51.756;-2.556;2023-07-02T14:25:34;4.60;;;1.75;;
47025;SDS011;32783;51.756;-2.556;2023-07-02T14:27:59;4.43;;;1.45;;
47025;SDS011;32783;51.756;-2.556;2023-07-02T14:30:24;3.28;;;1.00;;
47025;SDS011;32783;51.756;-2.556;2023-07-02T14:32:50;2.72;;;1.33;;
47025;SDS011;32783;51.756;-2.556;2023-07-02T14:35:15;4.38;;;1.35;;